sensor_id;sensor_type;location;lat;lon;timestamp;temperature;humidity
17859;DHT22;35426;30.698;104.050;2023-07-13T00:00:57;23.40;99.90
17859;DHT22;35426;30.698;104.050;2023-07-13T00:03:29;23.70;99.90
17859;DHT22;35426;30.698;104.050;2023-07-13T00:06:08;23.70;99.90
17859;DHT22;35426;30.698;104.050;2023-07-13T00:08:43;23.80;99.90
17859;DHT22;35426;30.698;104.050;2023-07-13T00:11:16;23.90;99.90
17859;DHT22;35426;30.698;104.050;2023-07-13T00:13:50;24.00;99.90
17859;DHT22;35426;30.698;104.050;2023-07-13T00:16:24;24.00;99.90
17859;DHT22;35426;30.698;104.050;2023-07-13T00:18:57;24.00;99.90
17859;DHT22;35426;30.698;104.050;2023-07-13T00:21:33;24.10;99.90
17859;DHT22;35426;30.698;104.050;2023-07-13T00:24:06;24.20;99.90
17859;DHT22;35426;30.698;104.050;2023-07-13T00:26:40;24.30;99.90
17859;DHT22;35426;30.698;104.050;2023-07-13T00:29:16;24.30;99.90
17859;DHT22;35426;30.698;104.050;2023-07-13T00:31:52;24.30;99.90
17859;DHT22;35426;30.698;104.050;2023-07-13T00:34:26;24.30;99.90
17859;DHT22;35426;30.698;104.050;2023-07-13T00:37:01;24.30;99.90
17859;DHT22;35426;30.698;104.050;2023-07-13T00:39:37;24.20;99.90
17859;DHT22;35426;30.698;104.050;2023-07-13T00:42:11;24.30;99.90
17859;DHT22;35426;30.698;104.050;2023-07-13T00:45:01;24.30;99.90
17859;DHT22;35426;30.698;104.050;2023-07-13T00:47:34;24.30;99.90
17859;DHT22;35426;30.698;104.050;2023-07-13T00:50:13;24.20;99.90
17859;DHT22;35426;30.698;104.050;2023-07-13T00:52:52;24.30;99.90
17859;DHT22;35426;30.698;104.050;2023-07-13T00:55:29;24.10;99.90
17859;DHT22;35426;30.698;104.050;2023-07-13T00:58:02;24.10;99.90
17859;DHT22;35426;30.698;104.050;2023-07-13T01:00:37;23.90;99.90
17859;DHT22;35426;30.698;104.050;2023-07-13T01:03:12;23.80;99.90
17859;DHT22;35426;30.698;104.050;2023-07-13T01:05:48;23.80;99.90
17859;DHT22;35426;30.698;104.050;2023-07-13T01:08:26;23.90;99.90
17859;DHT22;35426;30.698;104.050;2023-07-13T01:11:01;24.00;99.90
17859;DHT22;35426;30.698;104.050;2023-07-13T01:13:35;23.80;99.90
17859;DHT22;35426;30.698;104.050;2023-07-13T01:16:15;23.70;99.90
17859;DHT22;35426;30.698;104.050;2023-07-13T01:18:52;23.70;99.90
17859;DHT22;35426;30.698;104.050;2023-07-13T01:21:33;23.70;99.90
17859;DHT22;35426;30.698;104.050;2023-07-13T01:24:13;23.70;99.90
17859;DHT22;35426;30.698;104.050;2023-07-13T01:26:46;23.80;99.90
17859;DHT22;35426;30.698;104.050;2023-07-13T01:29:20;23.70;99.90
17859;DHT22;35426;30.698;104.050;2023-07-13T01:31:54;23.80;99.90
17859;DHT22;35426;30.698;104.050;2023-07-13T01:34:27;23.60;99.90
17859;DHT22;35426;30.698;104.050;2023-07-13T01:37:04;23.60;99.90
17859;DHT22;35426;30.698;104.050;2023-07-13T01:39:38;23.80;99.90
17859;DHT22;35426;30.698;104.050;2023-07-13T01:42:11;23.60;99.90
17859;DHT22;35426;30.698;104.050;2023-07-13T01:44:46;23.60;99.90
17859;DHT22;35426;30.698;104.050;2023-07-13T01:47:20;23.60;99.90
17859;DHT22;35426;30.698;104.050;2023-07-13T01:49:54;23.70;99.90
17859;DHT22;35426;30.698;104.050;2023-07-13T01:52:30;23.60;99.90
17859;DHT22;35426;30.698;104.050;2023-07-13T01:55:04;23.50;99.90
17859;DHT22;35426;30.698;104.050;2023-07-13T01:57:38;23.50;99.90
17859;DHT22;35426;30.698;104.050;2023-07-13T02:00:12;23.50;99.90
17859;DHT22;35426;30.698;104.050;2023-07-13T02:02:49;23.60;99.90
17859;DHT22;35426;30.698;104.050;2023-07-13T02:05:23;23.70;99.90
17859;DHT22;35426;30.698;104.050;2023-07-13T02:08:01;23.60;99.90
17859;DHT22;35426;30.698;104.050;2023-07-13T02:10:34;23.60;99.90
17859;DHT22;35426;30.698;104.050;2023-07-13T02:13:08;23.60;99.90
17859;DHT22;35426;30.698;104.050;2023-07-13T02:15:42;23.60;99.90
17859;DHT22;35426;30.698;104.050;2023-07-13T02:18:16;23.60;99.90
17859;DHT22;35426;30.698;104.050;2023-07-13T02:20:49;23.70;99.90
17859;DHT22;35426;30.698;104.050;2023-07-13T02:23:24;23.80;99.90
17859;DHT22;35426;30.698;104.050;2023-07-13T02:25:57;23.70;99.90
17859;DHT22;35426;30.698;104.050;2023-07-13T02:28:33;23.60;99.90
17859;DHT22;35426;30.698;104.050;2023-07-13T02:31:09;23.60;99.90
17859;DHT22;35426;30.698;104.050;2023-07-13T02:33:42;23.60;99.90
17859;DHT22;35426;30.698;104.050;2023-07-13T02:36:15;23.60;99.90
17859;DHT22;35426;30.698;104.050;2023-07-13T02:38:52;23.50;99.90
17859;DHT22;35426;30.698;104.050;2023-07-13T02:41:25;23.40;99.90
17859;DHT22;35426;30.698;104.050;2023-07-13T02:43:59;23.30;99.90
17859;DHT22;35426;30.698;104.050;2023-07-13T02:46:36;23.30;99.90
17859;DHT22;35426;30.698;104.050;2023-07-13T02:49:10;23.20;99.90
17859;DHT22;35426;30.698;104.050;2023-07-13T02:51:44;23.20;99.90
17859;DHT22;35426;30.698;104.050;2023-07-13T02:54:20;23.20;99.90
17859;DHT22;35426;30.698;104.050;2023-07-13T02:56:53;23.40;99.90
17859;DHT22;35426;30.698;104.050;2023-07-13T02:59:27;23.40;99.90
17859;DHT22;35426;30.698;104.050;2023-07-13T03:02:01;23.40;99.90
17859;DHT22;35426;30.698;104.050;2023-07-13T03:04:37;23.30;99.90
17859;DHT22;35426;30.698;104.050;2023-07-13T03:07:12;23.10;99.90
17859;DHT22;35426;30.698;104.050;2023-07-13T03:09:55;22.90;99.90
17859;DHT22;35426;30.698;104.050;2023-07-13T03:12:39;22.70;99.90
17859;DHT22;35426;30.698;104.050;2023-07-13T03:15:19;22.70;99.90
17859;DHT22;35426;30.698;104.050;2023-07-13T03:17:57;22.80;99.90
17859;DHT22;35426;30.698;104.050;2023-07-13T03:20:33;22.80;99.90
17859;DHT22;35426;30.698;104.050;2023-07-13T03:23:06;22.70;99.90
17859;DHT22;35426;30.698;104.050;2023-07-13T03:25:41;22.80;99.90
17859;DHT22;35426;30.698;104.050;2023-07-13T03:28:15;23.00;99.90
17859;DHT22;35426;30.698;104.050;2023-07-13T03:30:49;22.90;99.90
17859;DHT22;35426;30.698;104.050;2023-07-13T03:33:22;23.00;99.90
17859;DHT22;35426;30.698;104.050;2023-07-13T03:35:56;23.10;99.90
17859;DHT22;35426;30.698;104.050;2023-07-13T03:38:29;23.30;99.90
17859;DHT22;35426;30.698;104.050;2023-07-13T03:41:07;23.40;99.90
17859;DHT22;35426;30.698;104.050;2023-07-13T03:43:42;23.30;99.90
17859;DHT22;35426;30.698;104.050;2023-07-13T03:46:17;23.20;99.90
17859;DHT22;35426;30.698;104.050;2023-07-13T03:48:51;23.30;99.90
17859;DHT22;35426;30.698;104.050;2023-07-13T03:51:27;23.40;99.90
17859;DHT22;35426;30.698;104.050;2023-07-13T03:54:02;23.20;99.90
17859;DHT22;35426;30.698;104.050;2023-07-13T03:56:38;23.20;99.90
17859;DHT22;35426;30.698;104.050;2023-07-13T03:59:11;23.30;99.90
17859;DHT22;35426;30.698;104.050;2023-07-13T04:01:46;23.20;99.90
17859;DHT22;35426;30.698;104.050;2023-07-13T04:04:20;23.20;99.90
17859;DHT22;35426;30.698;104.050;2023-07-13T04:06:54;23.20;99.90
17859;DHT22;35426;30.698;104.050;2023-07-13T04:09:32;23.10;99.90
17859;DHT22;35426;30.698;104.050;2023-07-13T04:12:08;23.10;99.90
17859;DHT22;35426;30.698;104.050;2023-07-13T04:14:41;23.00;99.90
17859;DHT22;35426;30.698;104.050;2023-07-13T04:17:14;23.00;99.90
17859;DHT22;35426;30.698;104.050;2023-07-13T04:19:47;22.90;99.90
17859;DHT22;35426;30.698;104.050;2023-07-13T04:22:21;22.70;99.90
17859;DHT22;35426;30.698;104.050;2023-07-13T04:24:56;22.60;99.90
17859;DHT22;35426;30.698;104.050;2023-07-13T04:27:32;22.50;99.90
17859;DHT22;35426;30.698;104.050;2023-07-13T04:30:06;22.40;99.90
17859;DHT22;35426;30.698;104.050;2023-07-13T04:32:41;22.20;99.90
17859;DHT22;35426;30.698;104.050;2023-07-13T04:35:15;22.30;99.90
17859;DHT22;35426;30.698;104.050;2023-07-13T04:37:48;22.20;99.90
17859;DHT22;35426;30.698;104.050;2023-07-13T04:40:22;22.10;99.90
17859;DHT22;35426;30.698;104.050;2023-07-13T04:42:58;22.20;99.90
17859;DHT22;35426;30.698;104.050;2023-07-13T04:45:32;22.30;99.90
17859;DHT22;35426;30.698;104.050;2023-07-13T04:48:06;22.30;99.90
17859;DHT22;35426;30.698;104.050;2023-07-13T04:50:40;22.40;99.90
17859;DHT22;35426;30.698;104.050;2023-07-13T04:53:14;22.40;99.90
17859;DHT22;35426;30.698;104.050;2023-07-13T04:55:49;22.30;99.90
17859;DHT22;35426;30.698;104.050;2023-07-13T04:58:26;22.40;99.90
17859;DHT22;35426;30.698;104.050;2023-07-13T05:01:01;22.40;99.90
17859;DHT22;35426;30.698;104.050;2023-07-13T05:03:36;22.60;99.90
17859;DHT22;35426;30.698;104.050;2023-07-13T05:06:10;22.70;99.90
17859;DHT22;35426;30.698;104.050;2023-07-13T05:08:44;22.80;99.90
17859;DHT22;35426;30.698;104.050;2023-07-13T05:11:19;22.80;99.90
17859;DHT22;35426;30.698;104.050;2023-07-13T05:13:55;22.60;99.90
17859;DHT22;35426;30.698;104.050;2023-07-13T05:16:32;22.50;99.90
17859;DHT22;35426;30.698;104.050;2023-07-13T05:19:06;22.80;99.90
17859;DHT22;35426;30.698;104.050;2023-07-13T05:21:40;22.90;99.90
17859;DHT22;35426;30.698;104.050;2023-07-13T05:24:14;22.80;99.90
17859;DHT22;35426;30.698;104.050;2023-07-13T05:26:54;22.90;99.90
17859;DHT22;35426;30.698;104.050;2023-07-13T05:29:29;22.80;99.90
17859;DHT22;35426;30.698;104.050;2023-07-13T05:32:02;22.80;99.90
17859;DHT22;35426;30.698;104.050;2023-07-13T05:34:35;22.80;99.90
17859;DHT22;35426;30.698;104.050;2023-07-13T05:37:09;23.00;99.90
17859;DHT22;35426;30.698;104.050;2023-07-13T05:39:42;22.90;99.90
17859;DHT22;35426;30.698;104.050;2023-07-13T05:42:14;23.00;99.90
17859;DHT22;35426;30.698;104.050;2023-07-13T05:44:51;23.00;99.90
17859;DHT22;35426;30.698;104.050;2023-07-13T05:47:24;22.90;99.90
17859;DHT22;35426;30.698;104.050;2023-07-13T05:49:58;22.90;99.90
17859;DHT22;35426;30.698;104.050;2023-07-13T05:52:34;23.10;99.90
17859;DHT22;35426;30.698;104.050;2023-07-13T05:55:10;23.20;99.90
17859;DHT22;35426;30.698;104.050;2023-07-13T05:57:44;23.00;99.90
17859;DHT22;35426;30.698;104.050;2023-07-13T06:00:20;23.00;99.90
17859;DHT22;35426;30.698;104.050;2023-07-13T06:02:55;23.00;99.90
17859;DHT22;35426;30.698;104.050;2023-07-13T06:05:29;22.90;99.90
17859;DHT22;35426;30.698;104.050;2023-07-13T06:08:06;22.90;99.90
17859;DHT22;35426;30.698;104.050;2023-07-13T06:10:40;22.90;99.90
17859;DHT22;35426;30.698;104.050;2023-07-13T06:13:15;23.00;99.90
17859;DHT22;35426;30.698;104.050;2023-07-13T06:15:52;23.10;99.90
17859;DHT22;35426;30.698;104.050;2023-07-13T06:18:29;23.20;99.90
17859;DHT22;35426;30.698;104.050;2023-07-13T06:21:07;23.20;99.90
17859;DHT22;35426;30.698;104.050;2023-07-13T06:23:41;23.20;99.90
17859;DHT22;35426;30.698;104.050;2023-07-13T06:26:17;23.60;99.90
17859;DHT22;35426;30.698;104.050;2023-07-13T06:28:54;24.00;99.90
17859;DHT22;35426;30.698;104.050;2023-07-13T06:31:31;23.80;99.90
17859;DHT22;35426;30.698;104.050;2023-07-13T06:34:05;23.90;99.90
17859;DHT22;35426;30.698;104.050;2023-07-13T06:36:38;23.80;99.90
17859;DHT22;35426;30.698;104.050;2023-07-13T06:39:12;23.60;99.90
17859;DHT22;35426;30.698;104.050;2023-07-13T06:41:45;23.50;99.90
17859;DHT22;35426;30.698;104.050;2023-07-13T06:44:21;23.40;99.90
17859;DHT22;35426;30.698;104.050;2023-07-13T06:46:56;23.10;99.90
17859;DHT22;35426;30.698;104.050;2023-07-13T06:49:30;22.80;99.90
17859;DHT22;35426;30.698;104.050;2023-07-13T06:52:03;23.10;99.90
17859;DHT22;35426;30.698;104.050;2023-07-13T06:54:38;23.20;99.90
17859;DHT22;35426;30.698;104.050;2023-07-13T06:57:12;22.90;99.90
17859;DHT22;35426;30.698;104.050;2023-07-13T06:59:46;22.90;99.90
17859;DHT22;35426;30.698;104.050;2023-07-13T07:02:23;23.00;99.90
17859;DHT22;35426;30.698;104.050;2023-07-13T07:04:57;23.10;99.90
17859;DHT22;35426;30.698;104.050;2023-07-13T07:07:30;23.00;99.90
17859;DHT22;35426;30.698;104.050;2023-07-13T07:10:06;23.00;99.90
17859;DHT22;35426;30.698;104.050;2023-07-13T07:12:40;23.10;99.90
17859;DHT22;35426;30.698;104.050;2023-07-13T07:15:14;23.10;99.90
17859;DHT22;35426;30.698;104.050;2023-07-13T07:17:50;22.90;99.90
17859;DHT22;35426;30.698;104.050;2023-07-13T07:20:23;23.10;99.90
17859;DHT22;35426;30.698;104.050;2023-07-13T07:22:58;23.10;99.90
17859;DHT22;35426;30.698;104.050;2023-07-13T07:25:31;23.00;99.90
17859;DHT22;35426;30.698;104.050;2023-07-13T07:28:08;22.50;99.90
17859;DHT22;35426;30.698;104.050;2023-07-13T07:31:02;22.00;99.90
17859;DHT22;35426;30.698;104.050;2023-07-13T07:33:40;22.00;99.90
17859;DHT22;35426;30.698;104.050;2023-07-13T07:36:17;22.20;99.90
17859;DHT22;35426;30.698;104.050;2023-07-13T07:38:56;22.50;99.90
17859;DHT22;35426;30.698;104.050;2023-07-13T07:41:29;22.50;99.90
17859;DHT22;35426;30.698;104.050;2023-07-13T07:44:05;22.40;99.90
17859;DHT22;35426;30.698;104.050;2023-07-13T07:46:40;22.10;99.90
17859;DHT22;35426;30.698;104.050;2023-07-13T07:49:15;21.90;99.90
17859;DHT22;35426;30.698;104.050;2023-07-13T07:51:48;22.20;99.90
17859;DHT22;35426;30.698;104.050;2023-07-13T07:54:23;22.30;99.90
17859;DHT22;35426;30.698;104.050;2023-07-13T07:57:16;22.30;99.90
17859;DHT22;35426;30.698;104.050;2023-07-13T07:59:53;22.40;99.90
17859;DHT22;35426;30.698;104.050;2023-07-13T08:02:28;22.20;99.90
17859;DHT22;35426;30.698;104.050;2023-07-13T08:05:06;22.20;99.90
17859;DHT22;35426;30.698;104.050;2023-07-13T08:07:46;22.20;99.90
17859;DHT22;35426;30.698;104.050;2023-07-13T08:10:20;21.70;99.90
17859;DHT22;35426;30.698;104.050;2023-07-13T08:12:53;21.40;99.90
17859;DHT22;35426;30.698;104.050;2023-07-13T08:15:30;21.30;99.90
17859;DHT22;35426;30.698;104.050;2023-07-13T08:18:03;21.40;99.90
17859;DHT22;35426;30.698;104.050;2023-07-13T08:20:40;21.50;99.90
17859;DHT22;35426;30.698;104.050;2023-07-13T08:23:13;21.50;99.90
17859;DHT22;35426;30.698;104.050;2023-07-13T08:25:52;21.70;99.90
17859;DHT22;35426;30.698;104.050;2023-07-13T08:28:25;21.90;99.90
17859;DHT22;35426;30.698;104.050;2023-07-13T08:31:02;21.80;99.90
17859;DHT22;35426;30.698;104.050;2023-07-13T08:33:37;21.80;99.90
17859;DHT22;35426;30.698;104.050;2023-07-13T08:36:14;21.80;99.90
17859;DHT22;35426;30.698;104.050;2023-07-13T08:38:48;21.90;99.90
17859;DHT22;35426;30.698;104.050;2023-07-13T08:41:22;21.90;99.90
17859;DHT22;35426;30.698;104.050;2023-07-13T08:43:59;21.90;99.90
17859;DHT22;35426;30.698;104.050;2023-07-13T08:46:36;21.60;99.90
17859;DHT22;35426;30.698;104.050;2023-07-13T08:49:15;21.80;99.90
17859;DHT22;35426;30.698;104.050;2023-07-13T08:51:53;21.90;99.90
17859;DHT22;35426;30.698;104.050;2023-07-13T08:54:32;21.80;99.90
17859;DHT22;35426;30.698;104.050;2023-07-13T08:57:13;22.20;99.90
17859;DHT22;35426;30.698;104.050;2023-07-13T08:59:45;22.50;99.90
17859;DHT22;35426;30.698;104.050;2023-07-13T09:02:26;22.20;99.90
17859;DHT22;35426;30.698;104.050;2023-07-13T09:05:03;22.20;99.90
17859;DHT22;35426;30.698;104.050;2023-07-13T09:07:40;22.20;99.90
17859;DHT22;35426;30.698;104.050;2023-07-13T09:10:14;22.30;99.90
17859;DHT22;35426;30.698;104.050;2023-07-13T09:12:56;22.30;99.90
17859;DHT22;35426;30.698;104.050;2023-07-13T09:15:31;22.20;99.90
17859;DHT22;35426;30.698;104.050;2023-07-13T09:18:09;22.30;99.90
17859;DHT22;35426;30.698;104.050;2023-07-13T09:20:48;22.20;99.90
17859;DHT22;35426;30.698;104.050;2023-07-13T09:23:28;22.30;99.90
17859;DHT22;35426;30.698;104.050;2023-07-13T09:26:05;22.60;99.90
17859;DHT22;35426;30.698;104.050;2023-07-13T09:28:42;22.60;99.90
17859;DHT22;35426;30.698;104.050;2023-07-13T09:31:22;22.80;99.90
17859;DHT22;35426;30.698;104.050;2023-07-13T09:33:57;22.80;99.90
17859;DHT22;35426;30.698;104.050;2023-07-13T09:36:31;22.80;99.90
17859;DHT22;35426;30.698;104.050;2023-07-13T09:39:11;22.90;99.90
17859;DHT22;35426;30.698;104.050;2023-07-13T09:41:51;22.90;99.90
17859;DHT22;35426;30.698;104.050;2023-07-13T09:44:30;23.00;99.90
17859;DHT22;35426;30.698;104.050;2023-07-13T09:47:13;23.10;99.90
17859;DHT22;35426;30.698;104.050;2023-07-13T09:49:48;23.10;99.90
17859;DHT22;35426;30.698;104.050;2023-07-13T09:52:43;23.10;99.90
17859;DHT22;35426;30.698;104.050;2023-07-13T09:55:27;23.10;99.90
17859;DHT22;35426;30.698;104.050;2023-07-13T09:58:05;22.70;99.90
17859;DHT22;35426;30.698;104.050;2023-07-13T10:00:41;23.00;99.90
17859;DHT22;35426;30.698;104.050;2023-07-13T10:03:20;23.10;99.90
17859;DHT22;35426;30.698;104.050;2023-07-13T10:05:55;22.90;99.90
17859;DHT22;35426;30.698;104.050;2023-07-13T10:08:36;22.90;99.90
17859;DHT22;35426;30.698;104.050;2023-07-13T10:11:16;22.60;99.90
17859;DHT22;35426;30.698;104.050;2023-07-13T10:13:52;22.70;99.90
17859;DHT22;35426;30.698;104.050;2023-07-13T10:16:27;22.80;99.90
17859;DHT22;35426;30.698;104.050;2023-07-13T10:19:05;22.80;99.90
17859;DHT22;35426;30.698;104.050;2023-07-13T10:21:50;22.80;99.90
17859;DHT22;35426;30.698;104.050;2023-07-13T10:24:27;22.60;99.90
17859;DHT22;35426;30.698;104.050;2023-07-13T10:27:09;22.70;99.90
17859;DHT22;35426;30.698;104.050;2023-07-13T10:29:46;22.60;99.90
17859;DHT22;35426;30.698;104.050;2023-07-13T10:32:22;22.80;99.90
17859;DHT22;35426;30.698;104.050;2023-07-13T10:34:58;23.00;99.90
17859;DHT22;35426;30.698;104.050;2023-07-13T10:37:40;23.20;99.90
17859;DHT22;35426;30.698;104.050;2023-07-13T10:40:19;23.20;99.90
17859;DHT22;35426;30.698;104.050;2023-07-13T10:42:57;23.40;99.90
17859;DHT22;35426;30.698;104.050;2023-07-13T10:45:34;23.10;99.90
17859;DHT22;35426;30.698;104.050;2023-07-13T10:48:11;23.10;99.90
17859;DHT22;35426;30.698;104.050;2023-07-13T10:50:49;23.40;99.90
17859;DHT22;35426;30.698;104.050;2023-07-13T10:53:29;23.60;99.90
17859;DHT22;35426;30.698;104.050;2023-07-13T10:56:04;23.70;99.90
17859;DHT22;35426;30.698;104.050;2023-07-13T10:58:41;23.70;99.90
17859;DHT22;35426;30.698;104.050;2023-07-13T11:01:16;23.70;99.90
17859;DHT22;35426;30.698;104.050;2023-07-13T11:03:53;23.60;99.90
17859;DHT22;35426;30.698;104.050;2023-07-13T11:06:36;23.60;99.90
17859;DHT22;35426;30.698;104.050;2023-07-13T11:09:38;23.60;99.90
17859;DHT22;35426;30.698;104.050;2023-07-13T11:15:43;23.60;99.90
17859;DHT22;35426;30.698;104.050;2023-07-13T11:18:25;23.50;99.90
17859;DHT22;35426;30.698;104.050;2023-07-13T11:21:13;23.20;99.90
17859;DHT22;35426;30.698;104.050;2023-07-13T11:24:04;23.10;99.90
17859;DHT22;35426;30.698;104.050;2023-07-13T11:26:52;23.00;99.90
17859;DHT22;35426;30.698;104.050;2023-07-13T11:29:35;23.00;99.90
17859;DHT22;35426;30.698;104.050;2023-07-13T11:32:25;23.20;99.90
17859;DHT22;35426;30.698;104.050;2023-07-13T11:34:59;23.30;99.90
17859;DHT22;35426;30.698;104.050;2023-07-13T11:37:33;23.60;99.90
17859;DHT22;35426;30.698;104.050;2023-07-13T11:40:14;23.40;99.90
17859;DHT22;35426;30.698;104.050;2023-07-13T11:42:47;23.10;99.90
17859;DHT22;35426;30.698;104.050;2023-07-13T11:45:22;23.10;99.90
17859;DHT22;35426;30.698;104.050;2023-07-13T11:48:24;23.40;99.90
17859;DHT22;35426;30.698;104.050;2023-07-13T11:50:59;23.50;99.90
17859;DHT22;35426;30.698;104.050;2023-07-13T11:53:39;23.40;99.90
17859;DHT22;35426;30.698;104.050;2023-07-13T11:56:13;23.40;99.90
17859;DHT22;35426;30.698;104.050;2023-07-13T11:58:50;23.50;99.90
17859;DHT22;35426;30.698;104.050;2023-07-13T12:01:25;23.40;99.90
17859;DHT22;35426;30.698;104.050;2023-07-13T12:04:03;23.50;99.90
17859;DHT22;35426;30.698;104.050;2023-07-13T12:06:39;23.40;99.90
17859;DHT22;35426;30.698;104.050;2023-07-13T12:09:14;23.50;99.90
17859;DHT22;35426;30.698;104.050;2023-07-13T12:11:48;23.50;99.90
17859;DHT22;35426;30.698;104.050;2023-07-13T12:14:21;23.50;99.90
17859;DHT22;35426;30.698;104.050;2023-07-13T12:16:56;23.50;99.90
17859;DHT22;35426;30.698;104.050;2023-07-13T12:19:36;23.50;99.90
17859;DHT22;35426;30.698;104.050;2023-07-13T12:22:13;23.50;99.90
17859;DHT22;35426;30.698;104.050;2023-07-13T12:24:48;23.50;99.90
17859;DHT22;35426;30.698;104.050;2023-07-13T12:27:24;23.50;99.90
17859;DHT22;35426;30.698;104.050;2023-07-13T12:30:23;23.60;99.90
17859;DHT22;35426;30.698;104.050;2023-07-13T12:33:01;23.50;99.90
17859;DHT22;35426;30.698;104.050;2023-07-13T12:35:42;23.50;99.90
17859;DHT22;35426;30.698;104.050;2023-07-13T12:38:18;23.60;99.90
17859;DHT22;35426;30.698;104.050;2023-07-13T12:40:53;23.60;99.90
17859;DHT22;35426;30.698;104.050;2023-07-13T12:43:28;23.60;99.90
17859;DHT22;35426;30.698;104.050;2023-07-13T12:46:18;23.50;99.90
17859;DHT22;35426;30.698;104.050;2023-07-13T12:48:54;23.60;99.90
17859;DHT22;35426;30.698;104.050;2023-07-13T12:51:55;23.70;99.90
17859;DHT22;35426;30.698;104.050;2023-07-13T12:54:32;23.40;99.90
17859;DHT22;35426;30.698;104.050;2023-07-13T12:57:15;23.40;99.90
17859;DHT22;35426;30.698;104.050;2023-07-13T12:59:53;23.30;99.90
17859;DHT22;35426;30.698;104.050;2023-07-13T13:02:30;23.20;99.90
17859;DHT22;35426;30.698;104.050;2023-07-13T13:05:07;23.10;99.90
17859;DHT22;35426;30.698;104.050;2023-07-13T13:07:47;23.20;99.90
17859;DHT22;35426;30.698;104.050;2023-07-13T13:10:19;23.30;99.90
17859;DHT22;35426;30.698;104.050;2023-07-13T13:12:54;23.30;99.90
17859;DHT22;35426;30.698;104.050;2023-07-13T13:15:27;23.30;99.90
17859;DHT22;35426;30.698;104.050;2023-07-13T13:18:01;23.40;99.90
17859;DHT22;35426;30.698;104.050;2023-07-13T13:20:35;23.20;99.90
17859;DHT22;35426;30.698;104.050;2023-07-13T13:23:13;23.10;99.90
17859;DHT22;35426;30.698;104.050;2023-07-13T13:25:50;23.10;99.90
17859;DHT22;35426;30.698;104.050;2023-07-13T13:28:22;23.20;99.90
17859;DHT22;35426;30.698;104.050;2023-07-13T13:30:56;23.30;99.90
17859;DHT22;35426;30.698;104.050;2023-07-13T13:33:36;23.30;99.90
17859;DHT22;35426;30.698;104.050;2023-07-13T13:36:17;23.40;99.90
17859;DHT22;35426;30.698;104.050;2023-07-13T13:38:52;23.30;99.90
17859;DHT22;35426;30.698;104.050;2023-07-13T13:41:25;23.40;99.90
17859;DHT22;35426;30.698;104.050;2023-07-13T13:43:58;23.40;99.90
17859;DHT22;35426;30.698;104.050;2023-07-13T13:46:31;23.50;99.90
17859;DHT22;35426;30.698;104.050;2023-07-13T13:49:07;23.40;99.90
17859;DHT22;35426;30.698;104.050;2023-07-13T13:51:46;23.10;99.90
17859;DHT22;35426;30.698;104.050;2023-07-13T13:54:22;23.00;99.90
17859;DHT22;35426;30.698;104.050;2023-07-13T13:56:56;23.00;99.90
17859;DHT22;35426;30.698;104.050;2023-07-13T13:59:29;23.00;99.90
17859;DHT22;35426;30.698;104.050;2023-07-13T14:02:21;23.20;99.90
17859;DHT22;35426;30.698;104.050;2023-07-13T14:05:01;23.40;99.90
17859;DHT22;35426;30.698;104.050;2023-07-13T14:07:37;23.30;99.90
17859;DHT22;35426;30.698;104.050;2023-07-13T14:10:15;23.20;99.90
17859;DHT22;35426;30.698;104.050;2023-07-13T14:12:52;23.40;99.90
17859;DHT22;35426;30.698;104.050;2023-07-13T14:15:29;23.40;99.90
17859;DHT22;35426;30.698;104.050;2023-07-13T14:18:03;23.50;99.90
17859;DHT22;35426;30.698;104.050;2023-07-13T14:20:37;23.50;99.90
17859;DHT22;35426;30.698;104.050;2023-07-13T14:23:15;23.50;99.90
17859;DHT22;35426;30.698;104.050;2023-07-13T14:25:50;23.50;99.90
17859;DHT22;35426;30.698;104.050;2023-07-13T14:28:26;23.60;99.90
17859;DHT22;35426;30.698;104.050;2023-07-13T14:30:59;23.60;99.90
17859;DHT22;35426;30.698;104.050;2023-07-13T14:33:32;23.50;99.90
17859;DHT22;35426;30.698;104.050;2023-07-13T14:36:23;23.50;99.90
17859;DHT22;35426;30.698;104.050;2023-07-13T14:38:58;23.50;99.90
17859;DHT22;35426;30.698;104.050;2023-07-13T14:41:34;23.50;99.90
17859;DHT22;35426;30.698;104.050;2023-07-13T14:44:12;23.60;99.90
17859;DHT22;35426;30.698;104.050;2023-07-13T14:46:47;23.50;99.90
17859;DHT22;35426;30.698;104.050;2023-07-13T14:49:27;23.50;99.90
17859;DHT22;35426;30.698;104.050;2023-07-13T14:52:13;23.50;99.90
17859;DHT22;35426;30.698;104.050;2023-07-13T14:54:49;23.50;99.90
17859;DHT22;35426;30.698;104.050;2023-07-13T14:57:27;23.40;99.90
17859;DHT22;35426;30.698;104.050;2023-07-13T15:00:03;23.30;99.90
17859;DHT22;35426;30.698;104.050;2023-07-13T15:02:38;23.30;99.90
17859;DHT22;35426;30.698;104.050;2023-07-13T15:05:16;23.10;99.90
17859;DHT22;35426;30.698;104.050;2023-07-13T15:07:51;23.20;99.90
17859;DHT22;35426;30.698;104.050;2023-07-13T15:10:27;23.30;99.90
17859;DHT22;35426;30.698;104.050;2023-07-13T15:13:14;23.30;99.90
17859;DHT22;35426;30.698;104.050;2023-07-13T15:15:52;23.20;99.90
17859;DHT22;35426;30.698;104.050;2023-07-13T15:18:30;23.30;99.90
17859;DHT22;35426;30.698;104.050;2023-07-13T15:21:07;23.20;99.90
17859;DHT22;35426;30.698;104.050;2023-07-13T15:23:42;23.00;99.90
17859;DHT22;35426;30.698;104.050;2023-07-13T15:26:17;23.10;99.90
17859;DHT22;35426;30.698;104.050;2023-07-13T15:28:53;23.20;99.90
17859;DHT22;35426;30.698;104.050;2023-07-13T15:31:27;23.30;99.90
17859;DHT22;35426;30.698;104.050;2023-07-13T15:34:04;23.40;99.90
17859;DHT22;35426;30.698;104.050;2023-07-13T15:36:40;23.40;99.90
17859;DHT22;35426;30.698;104.050;2023-07-13T15:39:17;23.50;99.90
17859;DHT22;35426;30.698;104.050;2023-07-13T15:41:50;23.50;99.90
17859;DHT22;35426;30.698;104.050;2023-07-13T15:44:29;23.60;99.90
17859;DHT22;35426;30.698;104.050;2023-07-13T15:47:04;23.40;99.90
17859;DHT22;35426;30.698;104.050;2023-07-13T15:49:37;23.50;99.90
17859;DHT22;35426;30.698;104.050;2023-07-13T15:52:17;23.60;99.90
17859;DHT22;35426;30.698;104.050;2023-07-13T15:55:00;23.60;99.90
17859;DHT22;35426;30.698;104.050;2023-07-13T15:57:33;23.60;99.90
17859;DHT22;35426;30.698;104.050;2023-07-13T16:00:19;23.60;99.90
17859;DHT22;35426;30.698;104.050;2023-07-13T16:02:53;23.60;99.90